createdAt,value
2018-01-12T13:38:07.250Z,102002.50
2018-01-12T13:40:43.848Z,101998.16
2018-01-12T13:43:16.620Z,102008.77
2018-01-12T13:45:49.276Z,102010.57
2018-01-12T13:48:22.103Z,102013.59
2018-01-12T13:50:54.742Z,102018.31
2018-01-12T13:53:28.127Z,102017.63
2018-01-12T13:56:00.974Z,102018.54
2018-01-12T13:58:33.484Z,102023.70
2018-01-12T14:01:06.300Z,102020.14
2018-01-12T14:03:39.052Z,102026.17
2018-01-12T14:06:11.665Z,102025.74
2018-01-12T14:08:44.215Z,102029.89
2018-01-12T14:11:16.716Z,102032.64
2018-01-12T14:13:49.273Z,102036.03
2018-01-12T14:16:21.895Z,102034.02
2018-01-12T14:18:55.648Z,102042.60
2018-01-12T14:21:29.036Z,102037.31
2018-01-12T14:24:01.989Z,102047.47
2018-01-12T14:26:34.599Z,102040.64
2018-01-12T14:29:08.349Z,102040.69
2018-01-12T14:31:41.072Z,102038.16
2018-01-12T14:34:13.722Z,102043.87
2018-01-12T14:36:47.154Z,102049.66
2018-01-12T14:39:19.999Z,102045.45
2018-01-12T14:41:52.844Z,102050.41
2018-01-12T14:44:27.068Z,102047.53
2018-01-12T14:47:00.258Z,102054.85
2018-01-12T14:49:32.852Z,102052.47
2018-01-12T14:52:05.471Z,102059.81
2018-01-12T14:54:38.228Z,102056.55
2018-01-12T14:57:11.044Z,102060.94
2018-01-12T14:59:43.615Z,102066.24
2018-01-12T15:02:16.169Z,102065.30
2018-01-12T15:04:48.929Z,102066.36
2018-01-12T15:07:21.680Z,102064.28
2018-01-12T15:09:54.473Z,102067.33
2018-01-12T15:12:30.832Z,102062.00
2018-01-12T15:15:04.815Z,102062.55
2018-01-12T15:17:38.013Z,102068.78
2018-01-12T15:20:11.993Z,102064.95
2018-01-12T15:22:44.544Z,102064.93
2018-01-12T15:25:17.773Z,102066.70
2018-01-12T15:27:50.420Z,102061.53
2018-01-12T15:30:22.950Z,102064.19
2018-01-12T15:32:55.454Z,102068.28
2018-01-12T15:35:30.400Z,102068.80
2018-01-12T15:38:03.966Z,102073.70
2018-01-12T15:40:37.793Z,102070.36
2018-01-12T15:43:10.543Z,102073.02
2018-01-12T15:45:43.301Z,102074.33
2018-01-12T15:48:16.023Z,102072.62
2018-01-12T15:50:49.071Z,102068.05
2018-01-12T15:53:21.812Z,102071.08
2018-01-12T15:55:54.476Z,102064.25
2018-01-12T15:58:27.663Z,102071.16
2018-01-12T16:01:01.108Z,102067.13
2018-01-12T16:03:33.729Z,102079.30
2018-01-12T16:06:06.715Z,102077.08
2018-01-12T16:08:40.423Z,102086.88
2018-01-12T16:11:14.481Z,102088.80
2018-01-12T16:13:47.201Z,102079.73
2018-01-12T16:16:19.978Z,102087.35
2018-01-12T16:18:53.769Z,102081.19
2018-01-12T16:21:26.701Z,102084.53
2018-01-12T16:24:01.040Z,102084.70
2018-01-12T16:26:33.798Z,102087.72
2018-01-12T16:29:07.411Z,102095.51
2018-01-12T16:31:40.154Z,102096.91
2018-01-12T16:34:13.001Z,102099.66
2018-01-12T16:36:45.665Z,102106.70
2018-01-12T16:39:19.634Z,102101.03
2018-01-12T16:41:52.224Z,102104.42
2018-01-12T16:44:24.808Z,102103.22
2018-01-12T16:47:01.343Z,102104.16
2018-01-12T16:49:34.549Z,102104.23
2018-01-12T16:52:07.110Z,102106.69
2018-01-12T16:54:39.952Z,102110.98
2018-01-12T16:57:13.556Z,102112.34
2018-01-12T16:59:46.127Z,102117.84
2018-01-12T17:02:19.631Z,102123.30
2018-01-12T17:04:53.105Z,102123.02
2018-01-12T17:07:28.001Z,102119.80
2018-01-12T17:10:00.961Z,102123.80
2018-01-12T17:12:37.600Z,102118.34
2018-01-12T17:15:10.381Z,102122.53
2018-01-12T17:17:43.652Z,102129.49
2018-01-12T17:20:17.933Z,102121.52
2018-01-12T17:22:50.912Z,102122.51
2018-01-12T17:25:24.405Z,102130.40
2018-01-12T17:27:57.636Z,102124.52
2018-01-12T17:30:34.065Z,102125.30
2018-01-12T17:33:07.191Z,102127.76
2018-01-12T17:35:39.943Z,102131.81
2018-01-12T17:38:12.463Z,102123.14
2018-01-12T17:40:45.657Z,102128.16
2018-01-12T17:43:19.330Z,102128.66
2018-01-12T17:45:52.727Z,102134.72
2018-01-12T17:48:25.633Z,102130.88
2018-01-12T17:50:59.075Z,102121.71
2018-01-12T17:53:32.183Z,102123.55
2018-01-12T17:56:04.857Z,102128.72
2018-01-12T17:58:37.374Z,102128.91
2018-01-12T18:01:10.216Z,102125.33
2018-01-12T18:03:45.927Z,102132.13
2018-01-12T18:06:18.665Z,102124.92
2018-01-12T18:08:52.296Z,102124.05
2018-01-12T18:11:25.036Z,102118.77
2018-01-12T18:13:57.835Z,102119.13
2018-01-12T18:16:31.172Z,102128.84
2018-01-12T18:19:03.813Z,102127.14
2018-01-12T18:21:36.568Z,102122.99
2018-01-12T18:24:09.408Z,102130.08
2018-01-12T18:26:42.995Z,102118.13
2018-01-12T18:29:16.736Z,102127.56
2018-01-12T18:31:49.576Z,102130.47
2018-01-12T18:34:22.416Z,102135.54
2018-01-12T18:36:55.053Z,102138.97
2018-01-12T18:39:27.660Z,102133.72
2018-01-12T18:42:00.194Z,102141.52
2018-01-12T18:44:33.529Z,102141.52
2018-01-12T18:47:07.831Z,102148.86
2018-01-12T18:49:40.462Z,102142.55
2018-01-12T18:52:12.980Z,102152.30
2018-01-12T18:54:45.947Z,102143.60
2018-01-12T18:57:18.793Z,102148.66
2018-01-12T18:59:52.528Z,102152.94
2018-01-12T19:02:25.357Z,102153.73
2018-01-12T19:04:58.955Z,102153.95
2018-01-12T19:07:31.472Z,102158.47
2018-01-12T19:10:04.411Z,102159.42
2018-01-12T19:12:37.501Z,102157.70
2018-01-12T19:15:11.512Z,102153.16
2018-01-12T19:17:44.261Z,102159.52
2018-01-12T19:20:17.485Z,102164.75
2018-01-12T19:22:51.036Z,102151.08
2018-01-12T19:25:23.981Z,102155.42
2018-01-12T19:27:56.628Z,102163.50
2018-01-12T19:30:29.783Z,102159.55
2018-01-12T19:33:02.380Z,102168.95
2018-01-12T19:35:35.134Z,102162.30
2018-01-12T19:38:07.850Z,102157.39
2018-01-12T19:40:40.362Z,102162.25
2018-01-12T19:43:13.166Z,102162.90
2018-01-12T19:45:45.869Z,102163.62
2018-01-12T19:48:18.495Z,102166.77
2018-01-12T19:50:51.215Z,102168.63
2018-01-12T19:53:23.726Z,102169.71
2018-01-12T19:55:56.774Z,102167.88
2018-01-12T19:58:29.484Z,102169.74
2018-01-12T20:01:02.300Z,102168.65
2018-01-12T20:03:35.312Z,102169.61
2018-01-12T20:06:07.983Z,102173.23
2018-01-12T20:08:40.712Z,102166.55
2018-01-12T20:11:13.468Z,102171.63
2018-01-12T20:13:47.099Z,102168.05
2018-01-12T20:16:19.731Z,102176.57
2018-01-12T20:18:53.364Z,102170.13
2018-01-12T20:21:26.114Z,102174.69
2018-01-12T20:24:05.770Z,102167.30
2018-01-12T20:26:39.376Z,102172.52
2018-01-12T20:29:12.985Z,102174.01
2018-01-12T20:31:46.630Z,102175.87
2018-01-12T20:34:19.142Z,102176.82
2018-01-12T20:36:52.081Z,102182.55
2018-01-12T20:39:25.608Z,102178.09
2018-01-12T20:41:58.846Z,102186.05
2018-01-12T20:44:32.863Z,102180.17
2018-01-12T20:47:05.392Z,102174.40
2018-01-12T20:49:38.730Z,102178.58
2018-01-12T20:52:12.423Z,102186.44
2018-01-12T20:54:46.585Z,102187.52
2018-01-12T20:57:19.720Z,102182.06
2018-01-12T20:59:53.059Z,102178.81
2018-01-12T21:02:25.698Z,102181.58
2018-01-12T21:04:59.231Z,102186.08
2018-01-12T21:07:31.752Z,102179.92
2018-01-12T21:10:04.601Z,102178.94
2018-01-12T21:12:37.236Z,102171.28
2018-01-12T21:15:10.077Z,102172.82
2018-01-12T21:17:42.612Z,102176.66
2018-01-12T21:20:16.473Z,102172.69
2018-01-12T21:22:49.427Z,102182.41
2018-01-12T21:25:22.377Z,102172.81
2018-01-12T21:27:54.908Z,102177.12
2018-01-12T21:30:29.015Z,102169.22
2018-01-12T21:33:01.961Z,102177.59
2018-01-12T21:35:34.888Z,102175.51
2018-01-12T21:38:07.413Z,102169.74
2018-01-12T21:40:40.134Z,102178.92
2018-01-12T21:43:12.678Z,102183.22
2018-01-12T21:45:45.294Z,102178.72
2018-01-12T21:48:17.815Z,102174.28
2018-01-12T21:50:50.764Z,102175.68
2018-01-12T21:53:24.508Z,102178.97
2018-01-12T21:55:57.695Z,102183.13
2018-01-12T21:58:30.733Z,102190.69
2018-01-12T22:01:03.455Z,102185.48
2018-01-12T22:03:36.101Z,102183.98
2018-01-12T22:06:08.731Z,102190.04
2018-01-12T22:08:41.387Z,102182.67
2018-01-12T22:11:14.037Z,102190.89
2018-01-12T22:13:46.884Z,102195.77
2018-01-12T22:16:19.550Z,102195.48
2018-01-12T22:18:53.174Z,102196.93
2018-01-12T22:21:25.817Z,102192.81
2018-01-12T22:23:58.317Z,102198.97
2018-01-12T22:26:31.177Z,102194.45
2018-01-12T22:29:03.846Z,102190.33
2018-01-12T22:31:36.376Z,102196.59
2018-01-12T22:34:09.110Z,102194.99
2018-01-12T22:36:41.663Z,102200.71
2018-01-12T22:39:15.321Z,102207.98
2018-01-12T22:41:48.085Z,102195.48
2018-01-12T22:44:20.624Z,102197.27
2018-01-12T22:46:53.383Z,102193.81
2018-01-12T22:49:26.910Z,102196.79
2018-01-12T22:51:59.650Z,102196.77
2018-01-12T22:54:32.261Z,102201.16
2018-01-12T22:57:04.828Z,102190.98
2018-01-12T22:59:37.544Z,102199.13
2018-01-12T23:02:11.112Z,102195.02
2018-01-12T23:04:43.888Z,102200.87
2018-01-12T23:07:16.549Z,102189.75
2018-01-12T23:09:49.181Z,102195.14
2018-01-12T23:12:23.020Z,102188.97
2018-01-12T23:14:55.627Z,102191.16
2018-01-12T23:17:28.970Z,102185.03
2018-01-12T23:20:02.009Z,102189.86
2018-01-12T23:22:34.667Z,102183.46
2018-01-12T23:25:07.216Z,102187.03
2018-01-12T23:27:39.762Z,102182.95
2018-01-12T23:30:12.495Z,102185.63
2018-01-12T23:32:45.157Z,102182.94
2018-01-12T23:35:17.870Z,102186.42
2018-01-12T23:37:50.531Z,102178.29
2018-01-12T23:40:23.277Z,102181.74
2018-01-12T23:42:56.034Z,102188.58
2018-01-12T23:45:29.652Z,102183.33
2018-01-12T23:48:02.327Z,102182.13
2018-01-12T23:50:35.064Z,102182.52
2018-01-12T23:53:07.919Z,102182.50
2018-01-12T23:55:40.540Z,102175.38
2018-01-12T23:58:13.312Z,102179.45
